createdAt,value
2023-02-25T00:00:17.823Z,50.49
2023-02-25T00:02:45.579Z,50.10
2023-02-25T00:05:13.451Z,50.29
2023-02-25T00:07:42.467Z,50.16
2023-02-25T00:10:12.654Z,50.42
2023-02-25T00:12:40.323Z,50.37
2023-02-25T00:15:08.325Z,50.25
2023-02-25T00:17:36.320Z,50.20
2023-02-25T00:20:09.662Z,50.06
2023-02-25T00:22:38.622Z,50.19
2023-02-25T00:25:09.952Z,50.33
2023-02-25T00:27:37.695Z,50.12
2023-02-25T00:30:06.475Z,50.02
2023-02-25T00:32:34.338Z,49.78
2023-02-25T00:35:02.059Z,50.21
2023-02-25T00:37:29.767Z,50.14
2023-02-25T00:39:57.593Z,50.43
2023-02-25T00:42:26.903Z,50.35
2023-02-25T00:44:54.580Z,50.38
2023-02-25T00:47:22.244Z,49.68
2023-02-25T00:49:50.378Z,50.13
2023-02-25T00:52:18.121Z,50.08
2023-02-25T00:54:45.793Z,50.09
2023-02-25T00:57:13.463Z,50.34
2023-02-25T00:59:42.485Z,50.37
2023-02-25T01:02:10.172Z,50.43
2023-02-25T01:04:37.859Z,50.18
2023-02-25T01:07:05.616Z,49.90
2023-02-25T01:09:33.288Z,50.38
2023-02-25T01:12:00.952Z,49.98
2023-02-25T01:14:28.769Z,50.11
2023-02-25T01:17:01.377Z,50.44
2023-02-25T01:19:29.116Z,49.70
2023-02-25T01:21:58.140Z,49.93
2023-02-25T01:24:27.220Z,50.57
2023-02-25T01:26:57.084Z,50.40
2023-02-25T01:29:26.353Z,49.90
2023-02-25T01:31:54.411Z,50.00
2023-02-25T01:34:23.638Z,50.07
2023-02-25T01:36:51.315Z,49.95
2023-02-25T01:39:22.584Z,50.12
2023-02-25T01:41:51.136Z,49.79
2023-02-25T01:44:19.753Z,49.89
2023-02-25T01:46:48.049Z,49.90
2023-02-25T01:49:17.761Z,49.82
2023-02-25T01:51:48.283Z,49.52
2023-02-25T01:54:15.992Z,50.25
2023-02-25T01:56:49.715Z,49.92
2023-02-25T01:59:17.496Z,50.12
2023-02-25T02:01:45.364Z,49.58
2023-02-25T02:04:13.130Z,49.77
2023-02-25T02:06:41.324Z,50.26
2023-02-25T02:09:13.249Z,49.57
2023-02-25T02:11:41.000Z,49.95
2023-02-25T02:14:09.157Z,49.11
2023-02-25T02:17:15.220Z,50.19
2023-02-25T02:19:51.219Z,49.33
2023-02-25T02:22:24.115Z,50.28
2023-02-25T02:25:12.463Z,49.83
2023-02-25T02:27:52.706Z,49.95
2023-02-25T02:30:31.414Z,50.04
2023-02-25T02:33:02.470Z,49.70
2023-02-25T02:35:32.499Z,50.10
2023-02-25T02:38:12.286Z,50.19
2023-02-25T02:40:44.521Z,49.85
2023-02-25T02:43:33.340Z,50.33
2023-02-25T02:46:04.538Z,50.27
2023-02-25T02:48:35.676Z,49.98
2023-02-25T02:51:05.008Z,49.81
2023-02-25T02:53:33.606Z,50.43
2023-02-25T02:56:02.108Z,50.04
2023-02-25T02:58:30.925Z,50.16
2023-02-25T03:01:00.250Z,50.38
2023-02-25T03:03:36.289Z,50.17
2023-02-25T03:06:06.672Z,49.59
2023-02-25T03:08:36.270Z,50.01
2023-02-25T03:11:05.493Z,50.01
2023-02-25T03:13:33.191Z,49.74
2023-02-25T03:16:01.109Z,49.88
2023-02-25T03:18:32.753Z,50.08
2023-02-25T03:21:00.411Z,49.45
2023-02-25T03:23:30.341Z,49.55
2023-02-25T03:26:00.630Z,49.92
2023-02-25T03:28:30.850Z,49.99
2023-02-25T03:31:01.523Z,49.33
2023-02-25T03:33:33.237Z,49.96
2023-02-25T03:36:01.148Z,49.56
2023-02-25T03:38:30.537Z,50.16
2023-02-25T03:40:58.297Z,49.98
2023-02-25T03:43:28.594Z,49.90
2023-02-25T03:45:56.634Z,49.67
2023-02-25T03:48:24.361Z,49.60
2023-02-25T03:50:53.817Z,49.93
2023-02-25T03:53:21.893Z,49.56
2023-02-25T03:55:50.935Z,50.02
2023-02-25T03:58:18.600Z,50.01
2023-02-25T04:00:47.834Z,49.83
2023-02-25T04:03:15.737Z,50.15
2023-02-25T04:05:43.508Z,49.73
2023-02-25T04:08:15.768Z,49.87
2023-02-25T04:10:44.131Z,49.52
2023-02-25T04:13:13.694Z,49.91
2023-02-25T04:15:41.495Z,49.67
2023-02-25T04:18:09.374Z,49.15
2023-02-25T04:20:37.079Z,49.35
2023-02-25T04:23:04.747Z,49.95
2023-02-25T04:25:32.463Z,50.49
2023-02-25T04:28:00.184Z,49.48
2023-02-25T04:30:29.212Z,49.73
2023-02-25T04:32:56.869Z,49.41
2023-02-25T04:35:24.565Z,49.44
2023-02-25T04:37:52.224Z,49.39
2023-02-25T04:40:20.920Z,49.95
2023-02-25T04:42:48.699Z,49.47
2023-02-25T04:45:16.535Z,49.60
2023-02-25T04:47:45.634Z,49.58
2023-02-25T04:50:13.451Z,49.44
2023-02-25T04:52:41.120Z,49.27
2023-02-25T04:55:11.611Z,49.89
2023-02-25T04:57:42.185Z,49.78
2023-02-25T05:00:16.142Z,49.20
2023-02-25T05:02:45.183Z,49.71
2023-02-25T05:05:14.451Z,49.54
2023-02-25T05:07:42.209Z,49.80
2023-02-25T05:10:11.762Z,49.99
2023-02-25T05:12:39.488Z,49.28
2023-02-25T05:15:08.691Z,50.04
2023-02-25T05:17:36.658Z,50.07
2023-02-25T05:20:11.746Z,49.68
2023-02-25T05:22:39.592Z,49.78
2023-02-25T05:25:07.831Z,49.76
2023-02-25T05:27:35.608Z,49.65
2023-02-25T05:30:03.407Z,49.42
2023-02-25T05:32:31.255Z,50.04
2023-02-25T05:34:59.065Z,49.99
2023-02-25T05:37:28.116Z,49.86
2023-02-25T05:39:55.773Z,49.63
2023-02-25T05:42:23.455Z,49.80
2023-02-25T05:44:51.228Z,49.42
2023-02-25T05:47:19.015Z,49.63
2023-02-25T05:49:46.702Z,49.09
2023-02-25T05:52:14.534Z,49.52
2023-02-25T05:54:43.850Z,49.03
2023-02-25T05:57:11.536Z,49.11
2023-02-25T05:59:39.237Z,49.47
2023-02-25T06:02:06.957Z,48.96
2023-02-25T06:04:34.713Z,49.47
2023-02-25T06:07:03.356Z,49.50
2023-02-25T06:09:32.054Z,48.69
2023-02-25T06:12:01.224Z,48.98
2023-02-25T06:14:28.941Z,49.31
2023-02-25T06:16:57.194Z,48.60
2023-02-25T06:19:26.240Z,48.98
2023-02-25T06:21:54.746Z,49.32
2023-02-25T06:24:22.484Z,49.24
2023-02-25T06:26:50.213Z,49.43
2023-02-25T06:29:19.356Z,49.04
2023-02-25T06:31:47.170Z,49.42
2023-02-25T06:34:14.932Z,49.49
2023-02-25T06:36:42.621Z,49.34
2023-02-25T06:39:11.582Z,49.32
2023-02-25T06:41:39.249Z,49.68
2023-02-25T06:44:06.971Z,49.50
2023-02-25T06:46:36.037Z,49.26
2023-02-25T06:49:03.711Z,49.78
2023-02-25T06:51:31.394Z,49.65
2023-02-25T06:53:59.519Z,49.42
2023-02-25T06:56:29.093Z,49.15
2023-02-25T06:58:59.168Z,49.38
2023-02-25T07:01:26.905Z,48.94
2023-02-25T07:03:55.996Z,49.56
2023-02-25T07:06:23.950Z,49.12
2023-02-25T07:08:51.936Z,49.09
2023-02-25T07:11:29.143Z,49.25
2023-02-25T07:13:57.141Z,49.51
2023-02-25T07:16:25.169Z,49.30
2023-02-25T07:18:56.062Z,49.31
2023-02-25T07:21:29.284Z,49.30
2023-02-25T07:23:56.968Z,49.19
2023-02-25T07:26:28.172Z,48.97
2023-02-25T07:28:57.068Z,49.33
2023-02-25T07:31:25.076Z,49.22
2023-02-25T07:33:52.991Z,48.67
2023-02-25T07:36:20.693Z,49.03
2023-02-25T07:38:49.762Z,48.71
2023-02-25T07:41:18.564Z,49.18
2023-02-25T07:43:46.252Z,49.20
2023-02-25T07:46:14.224Z,49.00
2023-02-25T07:48:42.012Z,49.17
2023-02-25T07:51:10.863Z,48.44
2023-02-25T07:53:38.592Z,48.48
2023-02-25T07:56:07.921Z,48.75
2023-02-25T07:58:35.664Z,48.58
2023-02-25T08:01:07.812Z,49.09
2023-02-25T08:03:35.500Z,49.06
2023-02-25T08:06:07.859Z,49.31
2023-02-25T08:08:35.629Z,49.34
2023-02-25T08:11:07.589Z,49.06
2023-02-25T08:13:35.255Z,48.75
2023-02-25T08:16:05.257Z,48.70
2023-02-25T08:18:32.938Z,48.20
2023-02-25T08:21:02.777Z,48.60
2023-02-25T08:23:30.711Z,48.76
2023-02-25T08:25:59.114Z,48.81
2023-02-25T08:28:31.089Z,48.77
2023-02-25T08:31:00.511Z,48.54
2023-02-25T08:33:28.733Z,48.44
2023-02-25T08:35:56.459Z,48.74
2023-02-25T08:38:24.125Z,48.61
2023-02-25T08:40:51.828Z,48.68
2023-02-25T08:43:19.519Z,48.50
2023-02-25T08:45:48.551Z,48.61
2023-02-25T08:48:16.936Z,48.62
2023-02-25T08:50:44.622Z,48.85
2023-02-25T08:53:12.625Z,48.85
2023-02-25T08:55:40.383Z,49.12
2023-02-25T08:58:08.728Z,47.97
2023-02-25T09:00:37.866Z,48.49
2023-02-25T09:03:07.111Z,48.46
2023-02-25T09:05:34.816Z,48.85
2023-02-25T09:08:02.640Z,48.77
2023-02-25T09:10:38.663Z,48.29
2023-02-25T09:13:12.408Z,48.85
2023-02-25T09:15:40.102Z,48.59
2023-02-25T09:18:09.122Z,48.54
2023-02-25T09:20:36.772Z,48.84
2023-02-25T09:23:04.469Z,49.12
2023-02-25T09:25:32.151Z,48.83
2023-02-25T09:27:59.837Z,48.63
2023-02-25T09:30:27.530Z,48.25
2023-02-25T09:32:55.324Z,48.45
2023-02-25T09:35:24.532Z,49.10
2023-02-25T09:37:52.237Z,48.68
2023-02-25T09:40:22.725Z,48.52
2023-02-25T09:42:55.224Z,48.48
2023-02-25T09:45:23.497Z,48.52
2023-02-25T09:47:53.289Z,48.85
2023-02-25T09:50:22.442Z,49.01
2023-02-25T09:52:55.161Z,48.40
2023-02-25T09:55:24.467Z,48.49
2023-02-25T09:57:57.042Z,48.37
2023-02-25T10:00:24.857Z,48.44
2023-02-25T10:02:55.226Z,48.30
2023-02-25T10:05:25.318Z,48.16
2023-02-25T10:07:59.095Z,48.44
2023-02-25T10:10:28.693Z,48.24
2023-02-25T10:12:59.861Z,48.21
2023-02-25T10:15:35.397Z,47.16
2023-02-25T10:18:12.327Z,47.93
2023-02-25T10:21:00.983Z,48.01
2023-02-25T10:23:37.701Z,47.43
2023-02-25T10:26:09.073Z,47.61
2023-02-25T10:28:36.790Z,48.12
2023-02-25T10:31:06.534Z,47.55
2023-02-25T10:33:36.818Z,48.13
2023-02-25T10:36:08.665Z,48.18
2023-02-25T10:38:41.907Z,48.02
2023-02-25T10:41:09.577Z,47.94
2023-02-25T10:43:37.326Z,47.81
2023-02-25T10:46:09.385Z,48.01
2023-02-25T10:48:38.106Z,47.93
2023-02-25T10:51:09.747Z,47.58
2023-02-25T10:53:38.938Z,47.48
2023-02-25T10:56:06.943Z,47.63
2023-02-25T10:58:40.795Z,47.36
2023-02-25T11:01:13.651Z,48.11
2023-02-25T11:03:53.661Z,47.77
2023-02-25T11:06:26.962Z,47.54
2023-02-25T11:08:58.504Z,48.12
2023-02-25T11:11:28.173Z,48.45
2023-02-25T11:14:01.918Z,47.96
2023-02-25T11:16:29.804Z,47.72
2023-02-25T11:18:58.670Z,47.83
2023-02-25T11:21:34.488Z,47.49
2023-02-25T11:24:04.811Z,47.63
2023-02-25T11:26:34.368Z,47.67
2023-02-25T11:29:02.961Z,47.77
2023-02-25T11:31:33.158Z,47.52
2023-02-25T11:34:03.330Z,47.96
2023-02-25T11:36:31.501Z,47.69
2023-02-25T11:39:09.036Z,47.28
2023-02-25T11:41:36.719Z,47.64
2023-02-25T11:44:28.191Z,48.22
2023-02-25T11:47:08.325Z,47.65
2023-02-25T11:49:58.179Z,47.24
2023-02-25T11:52:27.455Z,47.68
2023-02-25T11:55:03.435Z,47.67
2023-02-25T11:57:34.266Z,47.52
2023-02-25T12:00:11.396Z,47.99
2023-02-25T12:02:45.160Z,47.17
2023-02-25T12:05:51.353Z,47.55
2023-02-25T12:08:33.039Z,47.89
2023-02-25T12:11:25.128Z,48.06
2023-02-25T12:14:33.974Z,47.35
2023-02-25T12:17:26.879Z,47.66
2023-02-25T12:20:42.014Z,47.60
2023-02-25T12:23:40.475Z,47.47
2023-02-25T12:26:09.668Z,47.83
2023-02-25T12:28:56.737Z,47.84
2023-02-25T12:32:03.387Z,47.81
2023-02-25T12:34:43.209Z,47.81
2023-02-25T12:37:24.059Z,47.20
2023-02-25T12:39:59.520Z,47.62
2023-02-25T12:42:42.131Z,47.85
2023-02-25T12:45:48.442Z,46.99
2023-02-25T12:48:48.238Z,47.12
2023-02-25T12:51:34.506Z,47.48
2023-02-25T12:54:07.929Z,46.73
2023-02-25T12:57:00.566Z,47.46
2023-02-25T12:59:47.529Z,47.83
2023-02-25T13:02:36.992Z,47.80
2023-02-25T13:05:13.268Z,47.52
2023-02-25T13:08:23.996Z,47.71
2023-02-25T13:10:55.622Z,47.09
2023-02-25T13:13:46.277Z,47.63
2023-02-25T13:16:19.763Z,47.75
2023-02-25T13:18:53.321Z,47.79
2023-02-25T13:21:28.413Z,46.62
2023-02-25T13:24:14.269Z,47.42
2023-02-25T13:27:00.918Z,46.76
2023-02-25T13:29:36.929Z,47.21
2023-02-25T13:32:18.756Z,47.39
2023-02-25T13:34:50.854Z,47.43
2023-02-25T13:37:26.792Z,47.44
2023-02-25T13:40:05.208Z,47.44
2023-02-25T13:42:48.413Z,47.03
2023-02-25T13:46:02.177Z,47.70
2023-02-25T13:48:48.683Z,47.76
2023-02-25T13:51:55.964Z,47.12
2023-02-25T13:54:34.907Z,47.21
2023-02-25T13:57:16.229Z,47.26
2023-02-25T14:00:03.182Z,47.52
2023-02-25T14:02:57.135Z,46.97
2023-02-25T14:05:51.582Z,47.34
2023-02-25T14:08:29.697Z,47.15
2023-02-25T14:11:03.749Z,46.52
2023-02-25T14:13:52.097Z,46.97
2023-02-25T14:16:33.052Z,46.78
2023-02-25T14:19:08.711Z,46.70
2023-02-25T14:21:44.817Z,46.92
2023-02-25T14:24:14.881Z,46.73
2023-02-25T14:26:46.618Z,46.70
2023-02-25T14:29:19.678Z,46.47
2023-02-25T14:31:54.824Z,46.69
2023-02-25T14:34:32.592Z,46.75
2023-02-25T14:37:07.316Z,46.60
2023-02-25T14:39:44.374Z,46.34
2023-02-25T14:42:33.542Z,46.18
2023-02-25T14:45:03.008Z,46.17
2023-02-25T14:47:31.881Z,46.34
2023-02-25T14:50:01.383Z,46.29
2023-02-25T14:52:43.605Z,45.94
2023-02-25T14:55:35.141Z,45.60
2023-02-25T14:58:26.489Z,45.61
2023-02-25T15:01:12.884Z,45.56
2023-02-25T15:03:49.376Z,45.22
2023-02-25T15:06:40.821Z,45.33
2023-02-25T15:09:32.617Z,45.18
2023-02-25T15:12:09.940Z,44.85
2023-02-25T15:15:00.016Z,44.77
2023-02-25T15:17:43.967Z,44.94
2023-02-25T15:20:20.062Z,44.58
2023-02-25T15:22:56.689Z,44.93
2023-02-25T15:25:37.821Z,45.37
2023-02-25T15:28:16.489Z,45.04
2023-02-25T15:33:43.639Z,45.90
2023-02-25T15:36:22.564Z,45.98
2023-02-25T15:38:50.801Z,46.00
2023-02-25T15:41:38.349Z,45.55
2023-02-25T15:44:30.112Z,46.50
2023-02-25T15:47:24.964Z,46.41
2023-02-25T15:49:54.852Z,46.20
2023-02-25T15:52:51.335Z,46.20
2023-02-25T15:55:22.476Z,46.58
2023-02-25T15:57:50.185Z,46.67
2023-02-25T16:00:49.837Z,46.80
2023-02-25T16:03:42.312Z,46.67
2023-02-25T16:06:17.399Z,46.88
2023-02-25T16:08:50.258Z,46.76
2023-02-25T16:11:27.193Z,46.22
2023-02-25T16:13:54.901Z,45.97
2023-02-25T16:16:22.934Z,45.89
2023-02-25T16:18:51.573Z,46.35
2023-02-25T16:21:23.679Z,46.41
2023-02-25T16:23:51.593Z,46.65
2023-02-25T16:26:26.412Z,46.81
2023-02-25T16:28:55.860Z,46.80
2023-02-25T16:31:25.691Z,46.68
2023-02-25T16:33:54.598Z,47.10
2023-02-25T16:36:29.151Z,46.78
2023-02-25T16:38:58.588Z,45.96
2023-02-25T16:41:33.301Z,46.20
2023-02-25T16:44:05.639Z,45.83
2023-02-25T16:46:34.473Z,46.29
2023-02-25T16:49:02.851Z,46.70
2023-02-25T16:51:33.584Z,46.86
2023-02-25T16:54:06.252Z,46.90
2023-02-25T16:56:33.960Z,47.20
2023-02-25T16:59:04.901Z,47.47
2023-02-25T17:01:33.391Z,48.25
2023-02-25T17:04:02.383Z,47.66
2023-02-25T17:06:31.459Z,47.87
2023-02-25T17:08:59.171Z,48.37
2023-02-25T17:11:26.848Z,48.41
2023-02-25T17:13:55.941Z,48.28
2023-02-25T17:16:26.854Z,48.20
2023-02-25T17:18:56.017Z,48.67
2023-02-25T17:21:24.972Z,48.47
2023-02-25T17:23:54.055Z,48.19
2023-02-25T17:26:21.975Z,48.08
2023-02-25T17:28:50.821Z,47.92
2023-02-25T17:31:19.645Z,48.31
2023-02-25T17:33:48.279Z,48.08
2023-02-25T17:36:16.488Z,48.33
2023-02-25T17:38:44.206Z,48.43
2023-02-25T17:41:17.058Z,48.17
2023-02-25T17:43:44.811Z,48.50
2023-02-25T17:46:25.340Z,48.34
2023-02-25T17:48:54.904Z,48.67
2023-02-25T17:51:29.112Z,48.70
2023-02-25T17:53:57.196Z,48.56
2023-02-25T17:56:27.522Z,48.95
2023-02-25T17:58:59.742Z,48.65
2023-02-25T18:01:28.836Z,48.87
2023-02-25T18:03:56.697Z,48.81
2023-02-25T18:06:39.486Z,48.66
2023-02-25T18:09:07.254Z,48.95
2023-02-25T18:11:37.684Z,48.74
2023-02-25T18:14:20.266Z,49.05
2023-02-25T18:16:47.987Z,48.52
2023-02-25T18:19:32.179Z,49.00
2023-02-25T18:21:59.880Z,49.42
2023-02-25T18:24:30.897Z,49.25
2023-02-25T18:27:26.877Z,49.51
2023-02-25T18:29:54.982Z,49.34
2023-02-25T18:32:22.724Z,48.91
2023-02-25T18:34:50.445Z,49.44
2023-02-25T18:37:18.446Z,49.11
2023-02-25T18:39:47.545Z,49.24
2023-02-25T18:42:16.366Z,49.08
2023-02-25T18:44:45.848Z,49.54
2023-02-25T18:47:13.695Z,49.30
2023-02-25T18:49:41.406Z,49.43
2023-02-25T18:52:14.259Z,49.10
2023-02-25T18:54:42.912Z,49.19
2023-02-25T18:57:16.926Z,48.87
2023-02-25T18:59:46.048Z,48.80
2023-02-25T19:02:23.117Z,49.32
2023-02-25T19:04:50.871Z,48.81
2023-02-25T19:07:18.977Z,49.05
2023-02-25T19:09:46.680Z,48.57
2023-02-25T19:12:14.788Z,49.09
2023-02-25T19:14:42.737Z,49.12
2023-02-25T19:17:15.735Z,48.83
2023-02-25T19:19:46.320Z,49.00
2023-02-25T19:22:15.453Z,49.41
2023-02-25T19:24:43.299Z,49.19
2023-02-25T19:27:17.119Z,48.77
2023-02-25T19:29:44.811Z,49.01
2023-02-25T19:32:13.903Z,48.98
2023-02-25T19:34:42.659Z,49.13
2023-02-25T19:37:10.432Z,49.08
2023-02-25T19:39:38.172Z,48.96
2023-02-25T19:42:05.941Z,48.79
2023-02-25T19:44:33.806Z,48.84
2023-02-25T19:47:01.519Z,49.11
2023-02-25T19:49:30.617Z,49.37
2023-02-25T19:51:58.312Z,49.22
2023-02-25T19:54:26.192Z,49.06
2023-02-25T19:56:53.907Z,48.46
2023-02-25T19:59:21.591Z,49.15
2023-02-25T20:01:49.655Z,48.59
2023-02-25T20:04:17.564Z,48.75
2023-02-25T20:06:46.682Z,49.21
2023-02-25T20:09:14.456Z,49.13
2023-02-25T20:11:43.063Z,48.96
2023-02-25T20:14:12.393Z,48.75
2023-02-25T20:16:40.506Z,48.71
2023-02-25T20:19:08.377Z,48.68
2023-02-25T20:21:36.118Z,48.94
2023-02-25T20:24:05.732Z,48.89
2023-02-25T20:26:33.581Z,49.05
2023-02-25T20:29:01.378Z,49.12
2023-02-25T20:31:29.150Z,48.44
2023-02-25T20:33:57.984Z,49.06
2023-02-25T20:36:27.145Z,48.95
2023-02-25T20:39:13.194Z,48.74
2023-02-25T20:41:41.983Z,49.11
2023-02-25T20:44:09.943Z,48.99
2023-02-25T20:46:37.860Z,48.87
2023-02-25T20:49:05.903Z,49.16
2023-02-25T20:51:34.605Z,48.80
2023-02-25T20:54:03.696Z,48.76
2023-02-25T20:56:34.551Z,48.87
2023-02-25T20:59:02.253Z,49.38
2023-02-25T21:01:29.941Z,48.51
2023-02-25T21:03:57.702Z,49.14
2023-02-25T21:06:26.438Z,48.78
2023-02-25T21:08:54.327Z,49.28
2023-02-25T21:11:22.167Z,48.90
2023-02-25T21:13:51.477Z,49.20
2023-02-25T21:16:19.799Z,49.22
2023-02-25T21:18:47.628Z,49.12
2023-02-25T21:21:16.317Z,49.08
2023-02-25T21:23:44.203Z,49.00
2023-02-25T21:26:12.269Z,48.58
2023-02-25T21:28:40.914Z,48.92
2023-02-25T21:31:11.527Z,48.94
2023-02-25T21:33:39.510Z,49.03
2023-02-25T21:36:07.979Z,49.06
2023-02-25T21:38:36.262Z,49.07
2023-02-25T21:41:05.934Z,49.05
2023-02-25T21:43:33.645Z,48.83
2023-02-25T21:46:02.182Z,49.20
2023-02-25T21:48:31.431Z,49.34
2023-02-25T21:50:59.196Z,49.02
2023-02-25T21:53:27.625Z,49.18
2023-02-25T21:55:55.431Z,48.88
2023-02-25T21:58:23.176Z,49.26
2023-02-25T22:00:50.895Z,48.91
2023-02-25T22:03:18.611Z,49.02
2023-02-25T22:05:47.748Z,49.26
2023-02-25T22:08:15.905Z,49.25
2023-02-25T22:10:43.696Z,49.43
2023-02-25T22:13:11.414Z,48.82
2023-02-25T22:15:39.206Z,49.31
2023-02-25T22:18:06.922Z,48.97
2023-02-25T22:20:34.614Z,48.94
2023-02-25T22:23:03.717Z,49.22
2023-02-25T22:25:31.391Z,49.37
2023-02-25T22:27:59.568Z,49.44
2023-02-25T22:30:27.293Z,49.07
2023-02-25T22:32:54.996Z,49.39
2023-02-25T22:35:22.687Z,49.27
2023-02-25T22:37:50.389Z,49.43
2023-02-25T22:40:19.415Z,49.13
2023-02-25T22:42:47.075Z,49.16
2023-02-25T22:45:14.788Z,49.22
2023-02-25T22:47:43.112Z,49.49
2023-02-25T22:50:12.048Z,49.45
2023-02-25T22:52:39.772Z,49.17
2023-02-25T22:55:08.688Z,49.08
2023-02-25T22:57:37.722Z,48.76
2023-02-25T23:00:07.903Z,49.15
2023-02-25T23:02:35.630Z,49.20
2023-02-25T23:05:03.375Z,49.09
2023-02-25T23:07:31.043Z,49.05
2023-02-25T23:09:58.732Z,48.77
2023-02-25T23:12:26.403Z,48.78
2023-02-25T23:14:55.412Z,49.31
2023-02-25T23:17:23.109Z,49.15
2023-02-25T23:19:50.782Z,49.15
2023-02-25T23:22:24.988Z,49.12
2023-02-25T23:24:52.654Z,48.74
2023-02-25T23:27:20.324Z,49.30
2023-02-25T23:29:47.987Z,48.83
2023-02-25T23:32:17.031Z,49.08
2023-02-25T23:34:44.704Z,48.93
2023-02-25T23:37:13.249Z,48.77
2023-02-25T23:39:41.788Z,48.99
2023-02-25T23:42:09.772Z,48.88
2023-02-25T23:44:37.669Z,48.90
2023-02-25T23:47:05.559Z,48.72
2023-02-25T23:49:34.604Z,48.91
2023-02-25T23:52:02.316Z,48.75
2023-02-25T23:54:30.045Z,49.04
2023-02-25T23:56:57.722Z,49.12
2023-02-25T23:59:25.404Z,48.70
